Time;durP1;ratioP1;P1;durP2;ratioP2;P2;SDS_P1;SDS_P2;PMS_P1;PMS_P2;Temp;Humidity;BMP_temperature;BMP_pressure;BME280_temperature;BME280_humidity;BME280_pressure;Samples;Min_cycle;Max_cycle;Signal;HPM_P1;HPM_P2
2022/06/21 00:03:08;;;;;;;11.05;3.50;;;14.80;99.90;;;;;;6264985;28;20586;-69
2022/06/21 00:06:17;;;;;;;7.68;3.17;;;14.80;99.90;;;;;;6265401;28;20272;-68
2022/06/21 00:09:23;;;;;;;9.00;2.97;;;14.70;99.90;;;;;;6264902;28;20296;-68
2022/06/21 00:12:28;;;;;;;14.05;3.30;;;14.70;99.90;;;;;;6264943;28;20295;-68
2022/06/21 00:15:35;;;;;;;4.85;3.13;;;14.70;99.90;;;;;;6265575;28;20263;-69
2022/06/21 00:18:41;;;;;;;5.75;3.15;;;14.60;99.90;;;;;;6264896;28;20307;-67
2022/06/21 00:21:47;;;;;;;4.70;2.70;;;14.60;99.90;;;;;;6264869;28;20287;-69
2022/06/21 00:24:52;;;;;;;8.77;3.25;;;14.60;99.90;;;;;;6264579;28;20312;-69
2022/06/21 00:27:57;;;;;;;9.43;3.08;;;14.70;99.90;;;;;;6264656;28;20299;-69
2022/06/21 00:31:06;;;;;;;12.65;3.63;;;14.60;99.90;;;;;;6264954;28;20390;-68
2022/06/21 00:34:18;;;;;;;8.90;3.67;;;14.60;99.90;;;;;;6264390;28;20292;-68
2022/06/21 00:37:24;;;;;;;17.05;3.85;;;14.50;99.90;;;;;;6264225;28;20295;-68
2022/06/21 00:40:33;;;;;;;16.83;3.97;;;14.50;99.90;;;;;;6264979;28;20272;-69
2022/06/21 00:43:42;;;;;;;32.65;4.47;;;14.50;99.90;;;;;;6263806;28;20480;-68
2022/06/21 00:46:53;;;;;;;31.48;4.50;;;14.50;99.90;;;;;;6264563;28;20455;-69
2022/06/21 00:50:11;;;;;;;17.30;3.60;;;14.50;99.90;;;;;;6263820;28;20296;-69
2022/06/21 00:53:21;;;;;;;21.33;4.63;;;14.40;99.90;;;;;;6263525;28;20296;-68
2022/06/21 00:56:30;;;;;;;25.88;4.45;;;14.40;99.90;;;;;;6264200;28;20268;-68
2022/06/21 00:59:38;;;;;;;29.65;4.63;;;14.40;99.90;;;;;;6262688;28;20433;-68
2022/06/21 01:06:41;;;;;;;21.58;4.13;;;14.40;99.90;;;;;;6272983;23;20241;-68
2022/06/21 01:09:51;;;;;;;22.55;4.18;;;14.30;99.90;;;;;;6133798;29;20306;-68
2022/06/21 01:13:00;;;;;;;26.98;4.45;;;14.30;99.90;;;;;;6166431;28;20310;-68
2022/06/21 01:16:13;;;;;;;32.38;4.75;;;14.20;99.90;;;;;;6119336;29;20461;-68
2022/06/21 01:19:30;;;;;;;25.25;3.97;;;14.20;99.90;;;;;;6119088;29;20295;-68
2022/06/21 01:22:43;;;;;;;23.23;4.45;;;14.10;99.90;;;;;;6135643;29;20302;-68
2022/06/21 01:25:56;;;;;;;14.52;3.60;;;14.10;99.90;;;;;;6166175;29;20274;-68
2022/06/21 01:29:04;;;;;;;10.02;3.90;;;14.10;99.90;;;;;;6166204;29;20306;-68
2022/06/21 01:32:11;;;;;;;18.92;4.10;;;14.10;99.90;;;;;;6165577;29;20291;-68
2022/06/21 01:35:32;;;;;;;11.80;3.70;;;14.00;99.90;;;;;;6166332;29;20549;-68
2022/06/21 01:38:45;;;;;;;9.98;3.30;;;14.00;99.90;;;;;;6165327;29;20306;-68
2022/06/21 01:41:55;;;;;;;16.50;4.18;;;13.90;99.90;;;;;;6142474;29;20358;-68
2022/06/21 01:45:07;;;;;;;11.45;3.78;;;14.00;99.90;;;;;;6141830;29;20322;-68
2022/06/21 01:48:20;;;;;;;11.05;3.80;;;14.10;99.90;;;;;;6142037;29;20494;-68
2022/06/21 01:51:33;;;;;;;7.82;3.75;;;14.10;99.90;;;;;;6141559;29;20275;-68
2022/06/21 01:54:42;;;;;;;21.77;4.30;;;14.00;99.90;;;;;;6141983;29;20303;-68
2022/06/21 01:57:49;;;;;;;18.33;3.92;;;14.00;99.90;;;;;;6141668;29;20303;-68
2022/06/21 02:01:00;;;;;;;18.38;4.13;;;14.10;99.90;;;;;;6142474;29;20275;-68
2022/06/21 02:04:07;;;;;;;21.35;4.28;;;14.10;99.90;;;;;;6141532;29;20482;-68
2022/06/21 02:07:18;;;;;;;17.13;4.35;;;14.00;99.90;;;;;;6118962;29;20280;-68
2022/06/21 02:10:28;;;;;;;15.13;4.80;;;14.00;99.90;;;;;;6141957;29;20271;-68
2022/06/21 02:13:37;;;;;;;17.42;5.22;;;14.10;99.90;;;;;;6134738;29;20291;-68
2022/06/21 02:16:47;;;;;;;12.68;4.45;;;14.20;99.90;;;;;;6118467;29;20279;-68
2022/06/21 02:19:58;;;;;;;24.63;4.97;;;14.10;99.90;;;;;;6117030;29;20324;-68
2022/06/21 02:23:04;;;;;;;20.80;4.47;;;14.10;99.90;;;;;;6117544;29;20303;-68
2022/06/21 02:26:12;;;;;;;14.20;4.50;;;14.10;99.90;;;;;;6117929;29;20455;-68
2022/06/21 02:29:17;;;;;;;14.43;4.35;;;14.10;99.90;;;;;;6100752;29;20299;-68
2022/06/21 02:32:30;;;;;;;17.20;4.47;;;14.10;99.90;;;;;;6117755;29;20378;-68
2022/06/21 02:35:40;;;;;;;18.77;4.57;;;14.10;99.90;;;;;;6117663;29;20275;-68
2022/06/21 02:38:50;;;;;;;18.70;4.47;;;14.10;99.90;;;;;;6117329;29;20303;-68
2022/06/21 02:41:58;;;;;;;9.70;4.25;;;14.10;99.90;;;;;;6117508;29;20275;-68
2022/06/21 02:45:09;;;;;;;12.15;3.75;;;14.20;99.90;;;;;;6116237;29;20303;-68
2022/06/21 02:48:26;;;;;;;15.45;3.90;;;14.30;99.90;;;;;;6117107;29;20590;-67
2022/06/21 02:51:36;;;;;;;9.63;4.22;;;14.30;99.90;;;;;;6117142;29;20567;-68
2022/06/21 02:54:47;;;;;;;11.75;3.88;;;14.30;99.90;;;;;;6117001;29;20461;-67
2022/06/21 02:57:57;;;;;;;17.90;3.65;;;14.30;99.90;;;;;;6116811;29;20344;-67
2022/06/21 03:01:05;;;;;;;4.82;3.50;;;14.30;99.90;;;;;;6124685;29;20538;-68
2022/06/21 03:04:20;;;;;;;5.65;3.70;;;14.30;99.90;;;;;;6125230;29;20303;-67
2022/06/21 03:07:29;;;;;;;12.00;3.85;;;14.40;99.90;;;;;;6156610;28;20298;-67
2022/06/21 03:10:39;;;;;;;6.32;3.47;;;14.40;99.90;;;;;;6164771;28;20268;-67
2022/06/21 03:13:45;;;;;;;8.18;3.40;;;14.40;99.90;;;;;;6163930;28;20303;-67
2022/06/21 03:16:50;;;;;;;6.28;3.53;;;14.40;99.90;;;;;;6164323;29;20560;-68
2022/06/21 03:19:57;;;;;;;7.05;3.75;;;14.50;99.90;;;;;;6163462;28;20310;-68
2022/06/21 03:23:04;;;;;;;7.63;3.72;;;14.40;99.90;;;;;;6163879;28;20612;-68
2022/06/21 03:26:13;;;;;;;4.15;3.83;;;14.50;99.90;;;;;;6164279;28;20299;-67
2022/06/21 03:29:19;;;;;;;7.68;4.00;;;14.50;99.90;;;;;;6163846;28;20608;-68
2022/06/21 03:32:24;;;;;;;6.03;3.75;;;14.50;99.90;;;;;;6163620;28;20309;-67
2022/06/21 03:35:34;;;;;;;4.88;3.50;;;14.50;99.90;;;;;;6163997;28;20458;-68
2022/06/21 03:38:44;;;;;;;3.60;3.50;;;14.50;99.90;;;;;;6163515;28;20303;-67
2022/06/21 03:41:49;;;;;;;6.03;4.20;;;14.60;99.90;;;;;;6163963;29;20568;-68
2022/06/21 03:44:59;;;;;;;4.10;3.53;;;14.60;99.90;;;;;;6163599;28;20302;-68
2022/06/21 03:48:17;;;;;;;6.28;4.00;;;14.70;99.90;;;;;;6163686;28;20298;-67
2022/06/21 03:51:30;;;;;;;4.32;3.92;;;14.70;99.90;;;;;;6163515;29;20274;-68
2022/06/21 03:54:40;;;;;;;8.90;4.47;;;14.70;99.90;;;;;;6163492;28;20465;-67
2022/06/21 03:57:54;;;;;;;4.45;4.05;;;14.80;99.90;;;;;;6163412;28;20314;-68
2022/06/21 04:01:05;;;;;;;4.65;3.78;;;14.80;99.90;;;;;;6164051;28;20274;-68
2022/06/21 04:04:17;;;;;;;6.13;3.70;;;14.80;99.90;;;;;;6163536;28;20294;-67
2022/06/21 04:07:32;;;;;;;3.80;3.50;;;14.90;99.90;;;;;;6186827;28;20317;-68
2022/06/21 04:10:43;;;;;;;3.47;3.30;;;14.90;99.90;;;;;;6177205;28;20271;-67
2022/06/21 04:13:54;;;;;;;3.95;3.65;;;14.90;99.90;;;;;;6163344;28;20298;-67
2022/06/21 04:17:04;;;;;;;5.18;3.60;;;14.90;99.90;;;;;;6163383;28;20569;-67
2022/06/21 04:20:17;;;;;;;4.63;4.05;;;15.00;99.90;;;;;;6162914;28;20275;-68
2022/06/21 04:23:28;;;;;;;3.90;3.60;;;15.10;99.90;;;;;;6163010;28;20298;-68
2022/06/21 04:26:37;;;;;;;4.43;3.72;;;15.00;99.90;;;;;;6163392;28;20298;-67
2022/06/21 04:29:48;;;;;;;7.57;3.95;;;15.10;99.90;;;;;;6163010;28;20302;-68
2022/06/21 04:33:00;;;;;;;5.97;4.40;;;15.20;99.90;;;;;;6163350;28;20592;-67
2022/06/21 04:36:14;;;;;;;3.42;3.22;;;15.20;99.90;;;;;;6163387;29;20654;-68
2022/06/21 04:39:26;;;;;;;3.55;3.33;;;15.20;99.90;;;;;;6163070;28;20306;-67
2022/06/21 04:42:37;;;;;;;6.20;3.53;;;15.30;99.90;;;;;;6163011;28;20294;-68
2022/06/21 04:45:48;;;;;;;3.15;3.15;;;15.30;99.90;;;;;;6167831;28;20298;-68
2022/06/21 04:48:58;;;;;;;3.10;3.00;;;15.40;99.90;;;;;;6167190;29;20576;-68
2022/06/21 04:52:07;;;;;;;3.17;3.03;;;15.40;99.90;;;;;;6167028;28;20392;-67
2022/06/21 04:55:16;;;;;;;2.70;2.70;;;15.40;99.90;;;;;;6167646;29;20274;-68
2022/06/21 04:58:22;;;;;;;2.80;2.60;;;15.40;99.90;;;;;;6167007;28;20608;-68
2022/06/21 05:01:30;;;;;;;2.65;2.55;;;15.50;99.90;;;;;;6166916;29;20557;-67
2022/06/21 05:04:39;;;;;;;3.22;2.28;;;15.60;99.90;;;;;;6166572;28;20302;-67
2022/06/21 05:07:48;;;;;;;2.55;2.33;;;15.60;99.90;;;;;;6166777;28;20298;-68
2022/06/21 05:11:00;;;;;;;2.85;2.47;;;15.70;99.90;;;;;;6166853;29;20266;-67
2022/06/21 05:14:05;;;;;;;2.83;2.63;;;15.70;99.90;;;;;;6166558;28;20303;-67
2022/06/21 05:17:17;;;;;;;2.38;2.28;;;15.70;99.90;;;;;;6165953;28;20278;-67
2022/06/21 05:20:28;;;;;;;2.65;2.38;;;15.80;99.90;;;;;;6166866;29;20279;-68
2022/06/21 05:23:34;;;;;;;2.75;2.55;;;19.50;99.90;;;;;;6166290;28;20295;-67
2022/06/21 05:26:47;;;;;;;2.60;2.60;;;22.30;98.90;;;;;;6166651;29;20299;-67
2022/06/21 05:29:58;;;;;;;2.58;2.53;;;20.60;99.90;;;;;;6166166;28;20474;-68
2022/06/21 05:33:11;;;;;;;2.70;2.50;;;19.40;99.90;;;;;;6165698;28;20298;-69
2022/06/21 05:36:22;;;;;;;4.40;2.67;;;18.90;99.90;;;;;;6166391;29;20590;-69
2022/06/21 05:39:31;;;;;;;2.60;2.50;;;18.80;99.90;;;;;;6165690;28;20302;-69
2022/06/21 05:42:38;;;;;;;3.00;2.72;;;18.50;99.90;;;;;;6165930;28;20330;-69
2022/06/21 05:45:49;;;;;;;3.08;2.83;;;18.50;99.90;;;;;;6166206;28;20294;-68
2022/06/21 05:49:08;;;;;;;2.83;2.63;;;18.40;99.90;;;;;;6165633;28;20303;-69
2022/06/21 05:52:17;;;;;;;2.83;2.63;;;18.50;99.90;;;;;;6165528;28;20568;-69
2022/06/21 05:55:25;;;;;;;2.50;2.40;;;18.40;99.90;;;;;;6164180;28;20274;-69
2022/06/21 05:58:36;;;;;;;2.95;2.70;;;18.30;99.90;;;;;;6165615;28;20303;-68
2022/06/21 06:01:47;;;;;;;5.45;2.65;;;18.40;99.90;;;;;;6165792;29;20546;-69
2022/06/21 06:04:58;;;;;;;2.58;2.58;;;18.50;99.90;;;;;;6171020;28;20470;-69
2022/06/21 06:08:09;;;;;;;2.70;2.50;;;18.40;99.90;;;;;;6189105;28;20306;-69
2022/06/21 06:11:19;;;;;;;2.63;2.42;;;18.40;99.80;;;;;;6174180;28;20266;-69
2022/06/21 06:14:33;;;;;;;2.80;2.60;;;18.50;99.90;;;;;;6165025;28;20600;-69
2022/06/21 06:17:43;;;;;;;4.85;2.30;;;18.60;99.90;;;;;;6164851;29;20299;-70
2022/06/21 06:20:54;;;;;;;2.60;2.25;;;18.70;99.90;;;;;;6164166;29;20278;-67
2022/06/21 06:24:02;;;;;;;2.20;2.10;;;18.90;99.90;;;;;;6164911;29;20298;-67
2022/06/21 06:27:45;;;;;;;2.33;2.22;;;19.00;99.90;;;;;;6164580;28;20488;-68
2022/06/21 06:30:56;;;;;;;3.08;2.30;;;19.10;98.80;;;;;;6164990;28;20452;-68
2022/06/21 06:34:04;;;;;;;2.20;2.10;;;19.20;99.90;;;;;;6164504;28;20298;-68
2022/06/21 06:37:20;;;;;;;3.25;2.38;;;19.20;98.40;;;;;;6164620;28;20274;-68
2022/06/21 06:40:28;;;;;;;2.10;2.00;;;19.20;98.20;;;;;;6164566;29;20551;-68
2022/06/21 06:43:39;;;;;;;4.88;2.28;;;19.10;98.80;;;;;;6164506;29;20298;-68
2022/06/21 06:46:49;;;;;;;2.20;2.08;;;19.20;98.40;;;;;;6164507;28;20294;-68
2022/06/21 06:49:58;;;;;;;3.83;2.72;;;19.20;98.10;;;;;;6163872;28;20295;-68
2022/06/21 06:53:07;;;;;;;2.47;2.47;;;19.20;98.50;;;;;;6164425;28;20298;-68
2022/06/21 06:56:18;;;;;;;4.20;2.33;;;19.20;98.80;;;;;;6164099;29;20274;-68
2022/06/21 06:59:25;;;;;;;2.35;2.25;;;19.10;98.70;;;;;;6164233;28;20299;-68
2022/06/21 07:02:36;;;;;;;2.88;2.38;;;19.20;97.90;;;;;;6164073;28;20290;-68
2022/06/21 07:05:48;;;;;;;2.42;2.30;;;19.20;97.00;;;;;;6163846;28;20322;-68
2022/06/21 07:08:59;;;;;;;4.10;2.42;;;19.30;97.00;;;;;;6163941;28;20310;-69
2022/06/21 07:12:11;;;;;;;2.88;2.67;;;19.30;97.10;;;;;;6164021;28;20549;-68
2022/06/21 07:15:16;;;;;;;4.20;2.10;;;19.40;96.70;;;;;;6163923;29;20270;-68
2022/06/21 07:18:35;;;;;;;2.58;2.38;;;19.40;96.40;;;;;;6163622;28;20604;-68
2022/06/21 07:21:42;;;;;;;2.55;2.40;;;19.10;95.10;;;;;;6164147;29;20278;-68
2022/06/21 07:24:54;;;;;;;5.07;2.55;;;19.20;95.60;;;;;;6163847;28;20298;-68
2022/06/21 07:28:04;;;;;;;5.88;3.13;;;19.40;96.50;;;;;;6163635;28;20302;-68
2022/06/21 07:31:13;;;;;;;2.30;2.30;;;19.50;96.50;;;;;;6163983;29;20278;-68
2022/06/21 07:34:24;;;;;;;2.55;2.33;;;19.50;94.90;;;;;;6163400;28;20485;-68
2022/06/21 07:37:35;;;;;;;2.30;2.20;;;19.60;95.30;;;;;;6163638;28;20303;-68
2022/06/21 07:40:46;;;;;;;2.05;2.05;;;19.70;95.00;;;;;;6163719;29;20270;-69
2022/06/21 07:43:56;;;;;;;1.92;1.92;;;19.80;94.60;;;;;;6163418;28;20307;-68
2022/06/21 07:47:07;;;;;;;5.10;2.20;;;19.90;94.20;;;;;;6163605;29;20276;-69
2022/06/21 07:50:20;;;;;;;2.13;2.13;;;19.90;93.90;;;;;;6163211;28;20278;-69
2022/06/21 07:53:29;;;;;;;2.03;2.03;;;20.00;93.10;;;;;;6163443;28;20298;-69
2022/06/21 07:56:39;;;;;;;1.90;1.90;;;19.90;93.20;;;;;;6163912;29;20594;-69
2022/06/21 07:59:48;;;;;;;2.08;2.08;;;20.00;92.80;;;;;;6163495;28;20302;-69
2022/06/21 08:06:42;;;;;;;3.15;2.03;;;20.00;93.00;;;;;;6181556;28;20306;-69
2022/06/21 08:09:54;;;;;;;3.42;1.88;;;20.00;93.40;;;;;;6183723;28;20306;-69
2022/06/21 08:12:59;;;;;;;2.28;2.17;;;20.10;93.50;;;;;;6163097;28;20303;-68
2022/06/21 08:16:09;;;;;;;2.20;2.10;;;20.20;93.30;;;;;;6163637;28;20274;-68
2022/06/21 08:19:22;;;;;;;2.35;2.25;;;20.10;92.50;;;;;;6165857;28;20487;-69
2022/06/21 08:22:34;;;;;;;1.98;1.83;;;20.20;92.40;;;;;;6167738;29;20294;-69
2022/06/21 08:25:47;;;;;;;4.22;2.00;;;20.20;90.50;;;;;;6167868;29;20278;-69
2022/06/21 08:28:57;;;;;;;2.05;2.05;;;20.20;91.80;;;;;;6167736;28;20310;-69
2022/06/21 08:32:07;;;;;;;3.05;2.25;;;20.10;91.10;;;;;;6168422;28;20271;-68
2022/06/21 08:35:19;;;;;;;2.08;1.98;;;20.30;92.80;;;;;;6166801;29;20580;-68
2022/06/21 08:38:29;;;;;;;2.30;2.30;;;20.40;92.30;;;;;;6167337;29;20354;-67
2022/06/21 08:42:01;;;;;;;2.40;2.28;;;20.30;92.40;;;;;;6167513;29;20460;-68
2022/06/21 08:45:48;;;;;;;2.65;2.55;;;20.40;91.70;;;;;;6166955;29;20283;-68
2022/06/21 08:49:49;;;;;;;2.90;2.70;;;20.40;92.70;;;;;;6166960;28;20577;-68
2022/06/21 08:53:19;;;;;;;2.10;2.10;;;20.50;91.60;;;;;;6131901;29;20302;-67
2022/06/21 08:56:32;;;;;;;2.03;2.03;;;20.50;91.30;;;;;;6167382;29;20270;-68
2022/06/21 09:00:05;;;;;;;1.80;1.80;;;20.20;90.10;;;;;;6166502;29;20302;-68
2022/06/21 09:03:48;;;;;;;2.22;2.20;;;20.20;90.30;;;;;;6167100;28;20299;-68
2022/06/21 09:07:16;;;;;;;2.22;2.22;;;20.30;90.20;;;;;;6166516;29;20306;-68
2022/06/21 09:10:38;;;;;;;2.20;2.20;;;20.30;90.30;;;;;;6166276;29;20315;-68
2022/06/21 09:14:19;;;;;;;2.40;2.30;;;20.30;88.70;;;;;;6166213;28;20326;-67
2022/06/21 09:17:32;;;;;;;3.63;2.72;;;20.30;90.20;;;;;;6165834;28;20310;-69
2022/06/21 09:20:44;;;;;;;2.67;2.58;;;20.40;87.80;;;;;;6166531;29;20586;-69
2022/06/21 09:24:03;;;;;;;3.22;2.30;;;20.30;87.40;;;;;;6166390;28;20298;-69
2022/06/21 09:27:17;;;;;;;2.47;2.38;;;20.30;86.00;;;;;;6166165;28;20270;-69
2022/06/21 09:30:33;;;;;;;2.20;2.20;;;20.30;88.00;;;;;;6165767;28;20295;-69
2022/06/21 09:33:45;;;;;;;2.58;2.38;;;20.30;86.20;;;;;;6166143;28;20298;-70
2022/06/21 09:36:56;;;;;;;3.33;3.22;;;20.30;85.40;;;;;;6166563;29;20266;-67
2022/06/21 09:40:10;;;;;;;2.78;2.78;;;20.20;87.60;;;;;;6165799;28;20302;-67
2022/06/21 09:43:49;;;;;;;2.55;2.35;;;20.30;87.80;;;;;;6165463;28;20475;-69
2022/06/21 09:47:02;;;;;;;1.88;1.88;;;20.40;85.60;;;;;;6165750;28;20270;-69
2022/06/21 09:50:16;;;;;;;2.00;2.00;;;20.50;84.90;;;;;;6165325;28;20298;-69
2022/06/21 09:53:33;;;;;;;4.45;4.10;;;20.50;86.80;;;;;;6165218;28;20298;-67
2022/06/21 09:56:45;;;;;;;3.45;2.60;;;20.50;83.30;;;;;;6165937;29;20557;-67
2022/06/21 10:00:05;;;;;;;2.58;2.40;;;20.40;84.50;;;;;;6165382;28;20306;-68
2022/06/21 10:03:32;;;;;;;2.22;2.10;;;20.40;81.50;;;;;;6165384;28;20293;-68
2022/06/21 10:06:44;;;;;;;2.08;2.08;;;20.40;84.10;;;;;;6185591;28;20551;-68
2022/06/21 10:10:03;;;;;;;2.22;2.22;;;20.50;82.10;;;;;;6185133;28;20303;-68
2022/06/21 10:13:35;;;;;;;2.40;2.30;;;20.60;83.80;;;;;;6165206;29;20303;-68
2022/06/21 10:17:18;;;;;;;2.40;2.30;;;20.60;83.90;;;;;;6165706;28;20275;-68
2022/06/21 10:21:09;;;;;;;2.00;2.00;;;20.70;82.20;;;;;;6164073;29;20378;-68
2022/06/21 10:24:49;;;;;;;2.70;2.33;;;20.80;80.90;;;;;;6164700;28;20299;-70
2022/06/21 10:28:22;;;;;;;2.17;2.17;;;20.80;78.30;;;;;;6164595;29;20318;-67
2022/06/21 10:31:57;;;;;;;2.60;2.40;;;20.90;77.60;;;;;;6164697;29;20396;-69
2022/06/21 10:35:20;;;;;;;2.15;2.15;;;21.10;76.50;;;;;;6164607;28;20298;-68
2022/06/21 10:38:59;;;;;;;2.70;2.60;;;21.20;79.00;;;;;;6147137;29;20486;-68
2022/06/21 10:45:49;;;;;;;3.00;2.47;;;21.10;80.10;;;;;;6165309;28;20270;-69
2022/06/21 10:49:24;;;;;;;3.60;2.50;;;21.00;80.40;;;;;;6164259;28;20298;-68
2022/06/21 10:53:06;;;;;;;10.45;2.80;;;21.00;79.20;;;;;;6164074;28;20581;-67
2022/06/21 11:04:18;;;;;;;2.35;2.25;;;21.30;80.60;;;;;;6163923;28;20616;-67
2022/06/21 11:07:33;;;;;;;6.75;2.20;;;21.40;80.70;;;;;;6142155;28;20314;-67
2022/06/21 11:10:53;;;;;;;2.25;2.25;;;21.50;80.90;;;;;;6164041;29;20306;-67
2022/06/21 11:14:11;;;;;;;2.10;2.10;;;21.70;78.30;;;;;;6163857;28;20298;-69
2022/06/21 11:17:25;;;;;;;2.13;2.10;;;21.80;78.50;;;;;;6163725;28;20271;-67
2022/06/21 11:20:37;;;;;;;2.00;2.00;;;21.80;79.40;;;;;;6164288;29;20298;-67
2022/06/21 11:23:55;;;;;;;3.55;2.00;;;21.80;76.00;;;;;;6163875;28;20294;-67
2022/06/21 11:27:08;;;;;;;2.00;2.00;;;21.90;77.40;;;;;;6164211;29;20561;-67
2022/06/21 11:30:19;;;;;;;5.07;2.30;;;22.00;76.00;;;;;;6163476;28;20298;-68
2022/06/21 11:33:33;;;;;;;2.00;2.00;;;22.10;76.90;;;;;;6163661;28;20388;-67
2022/06/21 11:36:46;;;;;;;2.28;2.17;;;22.20;76.70;;;;;;6163973;29;20597;-68
2022/06/21 11:40:04;;;;;;;5.78;2.20;;;22.20;75.60;;;;;;6163208;28;20374;-67
2022/06/21 11:43:38;;;;;;;2.05;1.92;;;22.30;72.90;;;;;;6163347;28;20298;-67
2022/06/21 11:46:49;;;;;;;1.90;1.90;;;22.50;72.10;;;;;;6163570;29;20275;-68
2022/06/21 11:50:00;;;;;;;2.20;2.20;;;22.60;73.50;;;;;;6163396;28;20294;-68
2022/06/21 11:53:28;;;;;;;4.78;2.33;;;22.50;73.70;;;;;;6166250;28;20298;-68
2022/06/21 11:56:44;;;;;;;5.32;2.40;;;22.60;73.90;;;;;;6168438;29;20585;-68
2022/06/21 11:59:59;;;;;;;2.33;2.33;;;22.60;74.60;;;;;;6167976;28;20302;-67
2022/06/21 12:03:08;;;;;;;2.15;2.13;;;22.60;74.80;;;;;;6168015;28;20306;-67
2022/06/21 12:06:21;;;;;;;2.95;2.63;;;22.70;71.40;;;;;;6184759;28;20305;-67
2022/06/21 12:09:43;;;;;;;5.95;2.50;;;22.80;72.60;;;;;;6189906;28;20491;-67
2022/06/21 12:12:59;;;;;;;5.38;2.50;;;22.80;74.50;;;;;;6167945;29;20490;-68
2022/06/21 12:16:27;;;;;;;2.65;2.35;;;22.60;71.60;;;;;;6168605;29;20429;-68
2022/06/21 12:19:39;;;;;;;2.25;2.15;;;22.50;71.80;;;;;;6168219;28;20380;-68
2022/06/21 12:22:47;;;;;;;2.40;2.30;;;22.60;72.10;;;;;;6167450;29;20293;-67
2022/06/21 12:25:53;;;;;;;2.55;2.53;;;22.60;72.90;;;;;;6168464;28;20275;-68
2022/06/21 12:29:00;;;;;;;3.42;2.30;;;22.70;71.00;;;;;;6167551;29;20298;-68
2022/06/21 12:32:20;;;;;;;3.35;2.40;;;22.70;69.30;;;;;;6167290;28;20295;-67
2022/06/21 12:35:44;;;;;;;2.35;2.22;;;22.60;69.80;;;;;;6168301;28;20270;-67
2022/06/21 12:38:54;;;;;;;2.17;2.08;;;22.60;73.00;;;;;;6167483;28;20303;-67
2022/06/21 12:42:26;;;;;;;2.42;2.33;;;22.60;72.70;;;;;;6167894;29;20283;-68
2022/06/21 12:45:53;;;;;;;2.20;2.08;;;22.70;71.10;;;;;;6166926;29;20553;-66
2022/06/21 12:49:20;;;;;;;2.22;2.13;;;22.70;74.20;;;;;;6166953;28;20584;-68
2022/06/21 12:52:32;;;;;;;2.08;2.08;;;22.70;71.30;;;;;;6166685;28;20299;-67
2022/06/21 12:55:48;;;;;;;2.35;2.13;;;22.70;71.70;;;;;;6167612;29;20275;-68
2022/06/21 12:59:16;;;;;;;2.10;2.10;;;22.70;72.60;;;;;;6166928;28;20319;-68
2022/06/21 13:02:39;;;;;;;2.20;2.10;;;22.70;72.80;;;;;;6166855;28;20434;-68
2022/06/21 13:06:02;;;;;;;2.30;2.20;;;22.60;72.00;;;;;;6166596;28;20306;-68
2022/06/21 13:09:37;;;;;;;2.30;2.28;;;22.50;71.70;;;;;;6166863;28;20303;-68
2022/06/21 13:13:15;;;;;;;1.77;1.77;;;22.50;71.70;;;;;;6142958;29;20593;-68
2022/06/21 13:16:36;;;;;;;5.15;2.10;;;22.90;72.60;;;;;;6143274;29;20275;-68
2022/06/21 13:19:52;;;;;;;3.25;1.80;;;23.10;70.20;;;;;;6142570;29;20299;-68
2022/06/21 13:23:05;;;;;;;1.80;1.80;;;23.20;69.30;;;;;;6141225;29;20302;-68
2022/06/21 13:26:22;;;;;;;1.98;1.88;;;23.30;67.40;;;;;;6142747;29;20271;-68
2022/06/21 13:29:47;;;;;;;1.67;1.67;;;23.50;64.70;;;;;;6142429;29;20299;-69
2022/06/21 13:32:57;;;;;;;1.83;1.83;;;23.50;64.60;;;;;;6142130;29;20308;-68
2022/06/21 13:36:10;;;;;;;1.83;1.73;;;23.50;63.90;;;;;;6142661;29;20275;-69
2022/06/21 13:39:31;;;;;;;2.15;1.60;;;23.30;63.70;;;;;;6142347;29;20299;-70
2022/06/21 13:42:46;;;;;;;1.90;1.90;;;23.20;67.30;;;;;;6141864;29;20299;-68
2022/06/21 13:45:57;;;;;;;1.80;1.80;;;23.10;66.50;;;;;;6142228;29;20272;-68
2022/06/21 13:49:14;;;;;;;7.13;2.30;;;22.90;62.40;;;;;;6141304;29;20319;-68
2022/06/21 13:52:25;;;;;;;2.67;2.58;;;22.80;65.30;;;;;;6141776;29;20590;-69
2022/06/21 13:55:55;;;;;;;2.35;2.15;;;23.00;71.20;;;;;;6142365;29;20275;-68
2022/06/21 13:59:06;;;;;;;2.28;2.28;;;23.00;72.50;;;;;;6141860;29;20382;-68
2022/06/21 14:02:21;;;;;;;2.33;2.20;;;23.00;72.50;;;;;;6141055;29;20278;-69
2022/06/21 14:05:33;;;;;;;2.40;2.40;;;23.40;71.50;;;;;;6141821;29;20303;-69
2022/06/21 14:08:43;;;;;;;4.35;2.80;;;24.20;69.70;;;;;;6141745;29;20299;-69
2022/06/21 14:11:52;;;;;;;2.45;2.45;;;23.80;70.30;;;;;;6161329;29;20294;-68
2022/06/21 14:15:04;;;;;;;2.83;2.63;;;23.20;70.70;;;;;;6164338;28;20306;-68
2022/06/21 14:18:19;;;;;;;2.53;2.38;;;23.20;71.30;;;;;;6164581;28;20303;-68
2022/06/21 14:21:33;;;;;;;2.60;2.60;;;23.20;71.00;;;;;;6164869;29;20274;-68
2022/06/21 14:24:43;;;;;;;4.20;2.90;;;23.20;73.00;;;;;;6164976;28;20297;-67
2022/06/21 14:27:52;;;;;;;2.55;2.55;;;23.20;71.20;;;;;;6164473;28;20302;-68
2022/06/21 14:31:04;;;;;;;2.45;2.40;;;23.40;72.40;;;;;;6165088;29;20274;-68
2022/06/21 14:34:14;;;;;;;2.63;2.42;;;23.20;70.80;;;;;;6163226;29;20302;-68
2022/06/21 14:37:27;;;;;;;2.25;2.15;;;23.00;71.80;;;;;;6163999;28;20274;-68
2022/06/21 14:40:58;;;;;;;4.57;2.47;;;23.00;71.20;;;;;;6164443;29;20557;-68
2022/06/21 14:44:15;;;;;;;4.32;2.42;;;23.20;71.80;;;;;;6164106;28;20592;-67
2022/06/21 14:47:30;;;;;;;2.30;2.20;;;23.80;70.70;;;;;;6164168;28;20517;-68
2022/06/21 14:50:43;;;;;;;4.38;2.65;;;23.90;68.60;;;;;;6164634;29;20279;-68
2022/06/21 14:54:10;;;;;;;3.80;2.60;;;24.40;69.90;;;;;;6163843;28;20306;-68
2022/06/21 14:57:43;;;;;;;11.48;2.67;;;24.70;66.60;;;;;;6163754;28;20278;-65
2022/06/21 15:00:55;;;;;;;14.55;2.88;;;24.30;67.20;;;;;;6164327;29;20541;-66
2022/06/21 15:04:09;;;;;;;2.45;2.45;;;24.40;68.00;;;;;;6162563;29;20294;-66
2022/06/21 15:07:25;;;;;;;3.53;2.60;;;24.40;70.40;;;;;;6163420;28;20440;-68
2022/06/21 15:10:36;;;;;;;2.47;2.47;;;24.30;68.20;;;;;;6164075;29;20275;-68
2022/06/21 15:13:50;;;;;;;5.50;2.33;;;24.40;69.70;;;;;;6163727;28;20487;-68
2022/06/21 15:17:08;;;;;;;3.72;2.45;;;24.30;67.50;;;;;;6164045;29;20274;-69
2022/06/21 15:20:20;;;;;;;3.03;2.83;;;24.30;66.20;;;;;;6163473;29;20270;-69
2022/06/21 15:23:31;;;;;;;3.50;2.60;;;24.90;66.40;;;;;;6163589;28;20307;-68
2022/06/21 15:26:42;;;;;;;2.33;2.22;;;25.50;63.80;;;;;;6163670;28;20450;-69
2022/06/21 15:29:51;;;;;;;13.40;2.42;;;25.80;59.90;;;;;;6163589;29;20298;-69
2022/06/21 15:32:59;;;;;;;2.63;2.50;;;25.90;59.00;;;;;;6163129;29;20323;-67
2022/06/21 15:36:21;;;;;;;2.50;2.30;;;25.70;58.30;;;;;;6164083;29;20274;-68
2022/06/21 15:39:34;;;;;;;2.30;2.22;;;26.30;57.00;;;;;;6163297;29;20556;-69
2022/06/21 15:42:56;;;;;;;4.05;2.20;;;26.60;56.00;;;;;;6163016;29;20298;-68
2022/06/21 15:46:10;;;;;;;3.50;2.38;;;26.60;56.30;;;;;;6163128;29;20607;-68
2022/06/21 15:53:12;;;;;;;4.13;2.30;;;25.90;57.30;;;;;;6163298;29;20299;-68
2022/06/21 15:56:28;;;;;;;2.25;2.20;;;25.30;58.70;;;;;;6163651;29;20270;-67
2022/06/21 15:59:41;;;;;;;2.63;2.53;;;24.90;58.30;;;;;;6162851;29;20302;-68
2022/06/21 16:02:56;;;;;;;3.40;2.28;;;25.10;57.70;;;;;;6162978;29;20476;-68
2022/06/21 16:06:07;;;;;;;2.17;2.17;;;25.00;58.10;;;;;;6163300;29;20298;-69
2022/06/21 16:09:15;;;;;;;3.80;2.30;;;24.70;58.20;;;;;;6162822;28;20456;-68
2022/06/21 16:12:25;;;;;;;4.55;2.10;;;24.60;58.50;;;;;;6162451;28;20271;-68
2022/06/21 16:15:36;;;;;;;2.40;2.30;;;24.50;57.90;;;;;;6163150;29;20299;-69
2022/06/21 16:18:44;;;;;;;2.58;2.28;;;24.40;58.30;;;;;;6162727;28;20327;-68
2022/06/21 16:21:56;;;;;;;4.30;2.33;;;24.50;58.10;;;;;;6163252;29;20275;-68
2022/06/21 16:25:16;;;;;;;4.35;2.13;;;24.40;59.10;;;;;;6162829;28;20294;-68
2022/06/21 16:28:32;;;;;;;2.25;2.15;;;24.30;58.70;;;;;;6162801;28;20585;-68
2022/06/21 16:35:08;;;;;;;2.42;2.10;;;24.20;59.70;;;;;;6162008;29;20302;-67
2022/06/21 16:38:21;;;;;;;3.53;2.30;;;24.20;59.80;;;;;;6162905;28;20302;-67
2022/06/21 16:44:59;;;;;;;4.47;2.30;;;24.20;59.00;;;;;;6167242;28;20304;-67
2022/06/21 16:48:09;;;;;;;1.88;1.88;;;24.00;58.80;;;;;;6166973;28;20298;-67
2022/06/21 16:51:17;;;;;;;2.05;2.05;;;24.10;59.20;;;;;;6167114;29;20442;-67
2022/06/21 16:54:30;;;;;;;1.98;1.95;;;23.90;59.30;;;;;;6166405;28;20306;-68
2022/06/21 16:57:41;;;;;;;2.28;2.28;;;23.80;59.90;;;;;;6166462;28;20295;-67
2022/06/21 17:00:56;;;;;;;2.15;1.98;;;23.80;60.10;;;;;;6167135;28;20294;-67
2022/06/21 17:04:03;;;;;;;2.40;2.17;;;23.70;60.90;;;;;;6166236;28;20302;-67
2022/06/21 17:07:13;;;;;;;2.40;2.40;;;23.40;58.50;;;;;;6166165;28;20278;-67
2022/06/21 17:11:25;;;;;;;3.00;2.90;;;23.50;58.70;;;;;;6165869;29;20266;-68
2022/06/21 17:14:07;;;;;;;3.80;3.60;;;23.50;58.90;;;;;;6166400;28;20310;-68
2022/06/21 17:17:21;;;;;;;3.17;2.95;;;23.40;59.50;;;;;;6166910;28;20278;-68
2022/06/21 17:20:53;;;;;;;2.45;2.35;;;23.20;59.30;;;;;;6167030;28;20274;-68